Time;durP1;ratioP1;P1;durP2;ratioP2;P2;SDS_P1;SDS_P2;PMS_P1;PMS_P2;Temp;Humidity;BMP_temperature;BMP_pressure;BME280_temperature;BME280_humidity;BME280_pressure;Samples;Min_cycle;Max_cycle;Signal;HPM_P1;HPM_P2
2021/10/01 00:01:39;;;;;;;19.67;9.98;;;;;;;5.62;65.72;101692.95;1755228;81;21325;-77
2021/10/01 00:04:45;;;;;;;25.70;11.28;;;;;;;5.59;65.88;101691.30;1756223;81;21196;-77
2021/10/01 00:07:51;;;;;;;28.92;11.63;;;;;;;5.55;66.02;101690.28;1756266;81;21172;-77
2021/10/01 00:10:58;;;;;;;20.80;11.60;;;;;;;5.53;66.21;101692.25;1754689;81;21212;-77
2021/10/01 00:14:05;;;;;;;23.25;10.72;;;;;;;5.50;66.33;101696.53;1756349;81;21314;-78
2021/10/01 00:17:11;;;;;;;19.45;10.82;;;;;;;5.47;66.58;101697.63;1754941;81;21857;-77
2021/10/01 00:20:18;;;;;;;20.25;11.22;;;;;;;5.44;66.77;101695.63;1734785;81;21850;-78
2021/10/01 00:23:24;;;;;;;25.10;11.03;;;;;;;5.43;66.98;101691.17;1735642;82;21736;-78
2021/10/01 00:26:30;;;;;;;24.20;10.55;;;;;;;5.43;67.24;101696.61;1734057;82;21943;-77
2021/10/01 00:29:35;;;;;;;19.70;9.90;;;;;;;5.39;67.39;101696.81;1733419;82;21346;-78
2021/10/01 00:32:42;;;;;;;20.85;11.85;;;;;;;5.36;67.53;101691.63;1733468;82;21363;-77
2021/10/01 00:35:48;;;;;;;22.07;11.38;;;;;;;5.32;67.78;101694.66;1734737;82;21834;-78
2021/10/01 00:38:54;;;;;;;19.70;11.25;;;;;;;5.30;67.99;101697.95;1735167;82;21870;-78
2021/10/01 00:42:00;;;;;;;26.23;13.22;;;;;;;5.29;68.30;101701.66;1734454;82;21197;-78
2021/10/01 00:45:07;;;;;;;27.55;12.65;;;;;;;5.26;68.39;101698.66;1734676;82;21165;-78
2021/10/01 00:48:12;;;;;;;21.80;11.20;;;;;;;5.27;68.59;101696.34;1734780;82;21851;-77
2021/10/01 00:51:17;;;;;;;22.00;10.98;;;;;;;5.27;68.69;101696.34;1734847;82;21863;-78
2021/10/01 00:54:22;;;;;;;23.02;12.68;;;;;;;5.23;68.89;101693.95;1734969;82;21228;-77
2021/10/01 00:57:28;;;;;;;21.40;11.53;;;;;;;5.17;68.99;101696.59;1733213;82;22644;-77
2021/10/01 01:00:41;;;;;;;21.17;11.25;;;;;;;5.15;69.11;101697.20;1734274;82;21534;-77
2021/10/01 01:04:09;;;;;;;25.60;12.33;;;;;;;5.13;69.24;101701.38;1733212;82;21323;-77
2021/10/01 01:07:49;;;;;;;24.57;12.53;;;;;;;5.09;69.42;101694.44;1733297;82;21192;-77
2021/10/01 01:11:05;;;;;;;23.90;12.70;;;;;;;5.07;69.52;101698.21;1733313;82;21181;-77
2021/10/01 01:14:22;;;;;;;23.60;12.33;;;;;;;5.05;69.68;101697.47;1735645;82;21836;-76
2021/10/01 01:17:40;;;;;;;26.30;11.57;;;;;;;5.02;69.79;101699.89;1720114;82;21236;-77
2021/10/01 01:20:58;;;;;;;20.23;11.83;;;;;;;4.98;69.94;101701.08;1735040;82;21272;-77
2021/10/01 01:24:17;;;;;;;26.42;13.13;;;;;;;4.94;70.08;101695.51;1735765;82;21272;-77
2021/10/01 01:27:48;;;;;;;23.05;12.98;;;;;;;4.91;70.26;101699.77;1734975;82;21311;-77
2021/10/01 01:30:56;;;;;;;25.80;12.25;;;;;;;4.87;70.57;101697.75;1734618;82;21830;-77
2021/10/01 01:34:03;;;;;;;22.27;12.28;;;;;;;4.86;70.73;101701.94;1738208;82;21291;-77
2021/10/01 01:37:20;;;;;;;26.55;14.80;;;;;;;4.83;70.92;101695.36;1735592;82;21272;-77
2021/10/01 01:40:28;;;;;;;21.97;12.20;;;;;;;4.79;71.09;101700.61;1734852;82;21334;-77
2021/10/01 01:43:33;;;;;;;29.12;13.25;;;;;;;4.76;71.35;101692.70;1733831;82;21185;-77
2021/10/01 01:46:38;;;;;;;28.05;13.80;;;;;;;4.75;71.52;101695.02;1733624;82;21370;-77
2021/10/01 01:49:45;;;;;;;29.63;14.10;;;;;;;4.73;71.73;101699.19;1734044;82;21835;-77
2021/10/01 01:52:51;;;;;;;23.55;13.18;;;;;;;4.74;71.99;101699.56;1734558;82;21743;-77
2021/10/01 01:55:57;;;;;;;28.98;14.30;;;;;;;4.73;72.16;101700.55;1733336;82;21502;-76
2021/10/01 01:59:03;;;;;;;30.15;14.93;;;;;;;4.72;72.28;101700.17;1734777;82;21830;-77
2021/10/01 02:02:08;;;;;;;23.22;12.18;;;;;;;4.73;72.34;101702.39;1735879;82;21311;-77
2021/10/01 02:05:15;;;;;;;29.80;14.20;;;;;;;4.70;72.44;101703.45;1734894;82;21818;-76
2021/10/01 02:08:20;;;;;;;24.55;13.58;;;;;;;4.67;72.48;101703.69;1734349;82;21193;-76
2021/10/01 02:11:25;;;;;;;35.73;13.40;;;;;;;4.66;72.52;101701.06;1735808;82;21311;-76
2021/10/01 02:14:32;;;;;;;28.83;14.60;;;;;;;4.65;72.54;101695.27;1735042;82;21232;-76
2021/10/01 02:17:40;;;;;;;25.48;13.68;;;;;;;4.66;72.56;101699.25;1734117;82;21215;-76
2021/10/01 02:20:46;;;;;;;29.65;15.08;;;;;;;4.66;72.60;101699.70;1735936;82;21224;-76
2021/10/01 02:23:51;;;;;;;28.12;14.30;;;;;;;4.63;72.73;101708.93;1735954;82;21260;-76
2021/10/01 02:27:00;;;;;;;26.77;13.70;;;;;;;4.61;72.76;101708.14;1734786;82;21827;-76
2021/10/01 02:30:18;;;;;;;30.65;14.95;;;;;;;4.59;72.84;101712.33;1734940;82;21288;-77
2021/10/01 02:33:28;;;;;;;25.50;15.05;;;;;;;4.57;72.93;101706.16;1735671;82;21342;-77
2021/10/01 02:36:34;;;;;;;31.95;15.65;;;;;;;4.57;73.15;101710.22;1736032;82;21792;-76
2021/10/01 02:39:42;;;;;;;32.48;16.12;;;;;;;4.58;73.24;101707.02;1735875;82;21141;-77
2021/10/01 02:42:46;;;;;;;28.32;15.15;;;;;;;4.56;73.31;101707.59;1735511;82;21304;-76
2021/10/01 02:45:53;;;;;;;28.10;14.87;;;;;;;4.55;73.56;101705.86;1734853;82;21303;-79
2021/10/01 02:49:00;;;;;;;28.83;16.30;;;;;;;4.55;73.85;101705.86;1733491;82;21312;-76
2021/10/01 02:52:06;;;;;;;31.75;15.32;;;;;;;4.54;74.14;101708.19;1735057;82;21503;-76
2021/10/01 02:55:23;;;;;;;30.25;15.40;;;;;;;4.51;74.49;101705.68;1734862;82;21217;-76
2021/10/01 02:58:42;;;;;;;31.40;16.02;;;;;;;4.51;74.83;101709.75;1735939;82;21837;-76
2021/10/01 03:01:50;;;;;;;35.38;16.55;;;;;;;4.51;75.11;101710.61;1734002;82;21748;-76
2021/10/01 03:04:57;;;;;;;27.70;15.45;;;;;;;4.52;75.29;101708.80;1716891;82;21656;-76
2021/10/01 03:08:06;;;;;;;28.83;15.58;;;;;;;4.51;75.40;101709.25;1734946;82;21291;-76
2021/10/01 03:11:14;;;;;;;25.20;14.87;;;;;;;4.50;75.53;101713.44;1734769;82;21827;-76
2021/10/01 03:14:21;;;;;;;31.42;16.05;;;;;;;4.48;75.71;101711.33;1733360;82;21189;-76
2021/10/01 03:17:28;;;;;;;41.85;16.70;;;;;;;4.48;75.80;101712.68;1735858;82;21268;-76
2021/10/01 03:20:33;;;;;;;26.20;13.83;;;;;;;4.45;75.82;101712.88;1734940;82;21307;-76
2021/10/01 03:23:40;;;;;;;27.45;15.60;;;;;;;4.43;75.89;101709.41;1756151;81;21302;-76
2021/10/01 03:26:45;;;;;;;28.07;16.17;;;;;;;4.40;75.97;101717.25;1756585;81;21311;-76
2021/10/01 03:29:52;;;;;;;33.55;14.63;;;;;;;4.37;76.02;101722.86;1756193;81;21192;-77
2021/10/01 03:32:57;;;;;;;28.52;14.33;;;;;;;4.35;76.07;101724.81;1756031;81;21331;-77
2021/10/01 03:36:04;;;;;;;34.60;15.18;;;;;;;4.32;76.14;101721.81;1756536;81;21307;-77
2021/10/01 03:39:11;;;;;;;30.95;15.83;;;;;;;4.32;76.11;101734.48;1771482;81;21768;-77
2021/10/01 03:42:18;;;;;;;27.73;14.75;;;;;;;4.31;76.05;101730.91;1768386;81;21144;-77
2021/10/01 03:45:23;;;;;;;25.95;14.07;;;;;;;4.32;75.99;101731.29;1773425;81;21830;-77
2021/10/01 03:48:29;;;;;;;27.45;14.83;;;;;;;4.34;75.89;101737.49;1769419;81;21327;-77
2021/10/01 03:51:35;;;;;;;33.65;14.20;;;;;;;4.35;75.85;101739.22;1769134;81;21831;-77
2021/10/01 03:54:42;;;;;;;23.95;13.10;;;;;;;4.37;75.90;101735.05;1757174;81;21211;-77
2021/10/01 03:57:50;;;;;;;23.02;13.13;;;;;;;4.39;75.90;101734.97;1770725;81;21267;-77
2021/10/01 04:00:56;;;;;;;22.37;13.30;;;;;;;4.41;75.95;101746.56;1771204;81;21291;-77
2021/10/01 04:04:02;;;;;;;24.77;13.62;;;;;;;4.42;75.98;101749.64;1769985;81;21288;-78
2021/10/01 04:07:07;;;;;;;25.10;13.32;;;;;;;4.45;75.97;101748.09;1770641;81;21275;-77
2021/10/01 04:10:13;;;;;;;28.95;15.43;;;;;;;4.47;75.97;101749.75;1768053;81;21279;-78
2021/10/01 04:13:19;;;;;;;28.92;13.03;;;;;;;4.50;75.93;101754.08;1771467;81;21240;-78
2021/10/01 04:16:25;;;;;;;27.65;12.43;;;;;;;4.53;75.90;101751.17;1770087;81;21231;-77
2021/10/01 04:19:31;;;;;;;23.22;13.13;;;;;;;4.58;75.83;101752.60;1770920;81;21338;-78
2021/10/01 04:22:36;;;;;;;23.80;12.53;;;;;;;4.64;75.74;101753.16;1770122;81;21339;-77
2021/10/01 04:25:49;;;;;;;22.82;13.05;;;;;;;4.71;75.62;101751.30;1704375;81;21190;-78
2021/10/01 04:28:55;;;;;;;26.93;14.43;;;;;;;4.74;75.48;101752.91;1740476;82;21319;-78
2021/10/01 04:32:04;;;;;;;22.90;12.28;;;;;;;4.78;75.40;101747.19;1769545;81;21277;-78
2021/10/01 04:35:09;;;;;;;25.10;11.65;;;;;;;4.84;75.33;101753.53;1745400;81;22178;-77
2021/10/01 04:38:15;;;;;;;23.65;12.03;;;;;;;4.94;75.25;101756.98;1749231;81;21264;-77
2021/10/01 04:41:21;;;;;;;19.80;11.50;;;;;;;5.05;75.12;101755.28;1770831;81;21162;-77
2021/10/01 04:44:27;;;;;;;29.35;13.40;;;;;;;5.16;74.92;101752.31;1753867;81;21264;-77
2021/10/01 04:47:34;;;;;;;25.85;12.20;;;;;;;5.27;74.73;101760.10;1755365;81;21177;-77
2021/10/01 04:50:40;;;;;;;20.77;11.25;;;;;;;5.38;74.44;101760.20;1758480;81;21318;-77
2021/10/01 04:53:46;;;;;;;24.15;12.10;;;;;;;5.46;74.26;101754.25;1759606;81;21296;-78
2021/10/01 04:56:51;;;;;;;21.55;12.23;;;;;;;5.58;74.09;101756.57;1751530;81;21181;-78
2021/10/01 04:59:59;;;;;;;21.48;11.68;;;;;;;5.68;73.85;101757.65;1763159;81;21238;-78
2021/10/01 05:03:22;;;;;;;20.88;12.68;;;;;;;5.81;73.54;101768.02;1752328;81;21339;-77
2021/10/01 05:06:48;;;;;;;26.48;11.10;;;;;;;5.93;73.07;101764.06;1739954;81;21911;-78
2021/10/01 05:10:13;;;;;;;22.25;11.45;;;;;;;6.06;72.42;101762.19;1752069;81;21272;-77
2021/10/01 05:13:36;;;;;;;19.30;10.23;;;;;;;6.15;71.79;101761.03;1764885;81;21792;-77
2021/10/01 05:17:00;;;;;;;23.27;10.48;;;;;;;6.30;71.55;101770.39;1753215;81;21199;-79
2021/10/01 05:20:16;;;;;;;23.87;10.58;;;;;;;6.45;71.15;101772.48;1745001;79;21319;-79
2021/10/01 05:23:24;;;;;;;20.50;10.35;;;;;;;6.61;70.78;101763.55;1765169;80;21169;-79
2021/10/01 05:26:30;;;;;;;21.95;10.80;;;;;;;6.77;70.31;101762.75;1761735;81;21351;-78
2021/10/01 05:29:35;;;;;;;15.53;9.15;;;;;;;6.93;69.59;101769.77;1764694;79;21890;-78
2021/10/01 05:32:41;;;;;;;15.83;9.05;;;;;;;7.06;68.82;101773.28;1760318;79;21193;-77
2021/10/01 05:35:49;;;;;;;15.72;9.05;;;;;;;7.16;68.10;101778.39;1763518;79;21330;-78
2021/10/01 05:38:54;;;;;;;14.93;8.35;;;;;;;7.29;67.21;101772.84;1775079;79;21182;-77
2021/10/01 05:42:01;;;;;;;16.07;7.67;;;;;;;7.43;66.21;101782.16;1767513;79;21304;-78
2021/10/01 05:45:07;;;;;;;12.88;7.80;;;;;;;7.57;65.93;101772.90;1767566;79;21294;-78
2021/10/01 05:48:33;;;;;;;14.33;8.10;;;;;;;7.75;64.87;101778.75;1762830;79;21536;-78
2021/10/01 05:52:24;;;;;;;13.48;7.35;;;;;;;7.91;63.15;101781.50;1695132;82;21241;-79
2021/10/01 05:55:07;;;;;;;17.92;7.75;;;;;;;8.07;61.92;101781.61;1689845;83;22521;-78
2021/10/01 05:58:30;;;;;;;21.37;8.23;;;;;;;8.18;61.15;101780.23;1720475;81;21248;-75
2021/10/01 06:01:35;;;;;;;20.60;9.53;;;;;;;8.32;60.74;101778.60;1725099;81;21295;-75
2021/10/01 06:04:42;;;;;;;23.77;8.23;;;;;;;8.40;59.69;101782.11;1720571;81;21590;-74
2021/10/01 06:07:48;;;;;;;18.80;8.10;;;;;;;8.47;59.71;101779.27;1720555;81;21153;-75
2021/10/01 06:10:55;;;;;;;15.28;7.70;;;;;;;8.58;58.79;101778.36;1716517;81;21205;-76
2021/10/01 06:14:00;;;;;;;14.95;7.15;;;;;;;8.65;59.34;101779.56;1715074;81;21160;-75
2021/10/01 06:17:07;;;;;;;16.02;7.12;;;;;;;8.79;58.98;101778.41;1723365;81;21153;-75
2021/10/01 06:20:13;;;;;;;16.90;8.13;;;;;;;8.89;58.70;101781.63;1775717;79;21988;-76
2021/10/01 06:23:18;;;;;;;14.55;6.85;;;;;;;8.99;58.05;101780.81;1766917;79;21696;-76
2021/10/01 06:26:24;;;;;;;13.88;7.42;;;;;;;9.10;57.67;101788.97;1778179;79;21342;-76
2021/10/01 06:29:29;;;;;;;17.32;6.92;;;;;;;9.18;57.58;101788.69;1764991;79;21268;-76
2021/10/01 06:32:35;;;;;;;15.78;6.87;;;;;;;9.31;57.55;101787.61;1772593;79;21256;-76
2021/10/01 06:35:41;;;;;;;9.83;5.75;;;;;;;9.47;56.74;101788.90;1770547;79;21275;-76
2021/10/01 06:38:47;;;;;;;13.20;5.80;;;;;;;9.58;54.79;101793.42;1766946;79;21153;-78
2021/10/01 06:41:53;;;;;;;10.78;5.03;;;;;;;9.69;53.28;101789.27;1768942;79;21832;-76
2021/10/01 06:45:01;;;;;;;16.15;5.35;;;;;;;9.82;52.46;101792.27;1705064;82;21274;-77
2021/10/01 06:48:22;;;;;;;10.30;4.60;;;;;;;9.92;52.41;101791.30;1710139;82;21590;-77
2021/10/01 06:51:38;;;;;;;10.00;4.65;;;;;;;10.07;51.76;101786.84;1717146;81;21288;-78
2021/10/01 08:19:06;;;;;;;6.22;3.33;;;;;;;11.95;42.60;101755.06;1675364;83;21225;-75
2021/10/01 08:22:03;;;;;;;3.55;2.80;;;;;;;11.98;42.06;101756.12;1716085;83;21325;-76
2021/10/01 08:25:09;;;;;;;4.67;2.75;;;;;;;11.95;42.67;101750.95;1712500;82;21193;-75
2021/10/01 08:28:15;;;;;;;6.67;3.55;;;;;;;11.99;42.34;101749.61;1694970;82;21176;-78
2021/10/01 08:31:27;;;;;;;8.70;3.50;;;;;;;12.03;42.40;101749.67;1710923;82;21375;-75
2021/10/01 08:34:32;;;;;;;4.92;2.98;;;;;;;12.05;42.07;101739.94;1715494;82;21960;-77
2021/10/01 08:37:37;;;;;;;5.45;3.40;;;;;;;12.07;42.53;101743.38;1711238;82;21402;-77
2021/10/01 08:40:43;;;;;;;4.58;2.80;;;;;;;12.16;42.79;101732.88;1719726;81;21728;-74
2021/10/01 08:43:55;;;;;;;4.00;2.80;;;;;;;12.22;42.60;101734.14;1720307;82;21387;-76
2021/10/01 08:47:02;;;;;;;5.05;3.33;;;;;;;12.30;42.70;101730.13;1718595;82;21291;-76
2021/10/01 08:50:07;;;;;;;5.25;3.12;;;;;;;12.41;42.49;101725.79;1719854;82;21162;-75
2021/10/01 08:53:17;;;;;;;8.68;3.05;;;;;;;12.49;41.36;101726.41;1723982;82;21315;-77
2021/10/01 08:56:31;;;;;;;4.33;2.77;;;;;;;12.51;41.31;101733.96;1834387;76;22200;-74
2021/10/01 08:59:36;;;;;;;5.22;2.65;;;;;;;12.44;41.18;101734.24;1803512;77;21164;-75
2021/10/01 09:02:50;;;;;;;5.65;3.12;;;;;;;12.39;41.04;101725.09;1759996;79;21206;-75
2021/10/01 09:05:56;;;;;;;7.03;3.50;;;;;;;12.37;41.36;101725.74;1761728;80;21317;-75
2021/10/01 09:09:09;;;;;;;4.37;2.77;;;;;;;12.43;41.30;101725.15;1760075;80;21305;-75
2021/10/01 09:12:11;;;;;;;5.30;3.00;;;;;;;12.44;40.84;101728.75;1762839;80;21344;-75
2021/10/01 09:15:16;;;;;;;7.70;3.22;;;;;;;12.42;41.69;101713.83;1765163;80;21304;-76
2021/10/01 09:18:23;;;;;;;7.97;2.85;;;;;;;12.55;40.96;101709.31;1761529;80;21872;-76
2021/10/01 09:21:30;;;;;;;8.43;2.65;;;;;;;12.65;40.61;101721.59;1767237;80;21171;-76
2021/10/01 09:24:41;;;;;;;5.10;2.47;;;;;;;12.68;40.96;101694.70;1768260;80;21670;-76
2021/10/01 09:27:43;;;;;;;4.42;3.00;;;;;;;12.77;40.51;101712.13;1762514;80;21315;-77
2021/10/01 09:30:55;;;;;;;4.15;2.72;;;;;;;12.86;40.37;101705.69;1744143;80;21312;-77
2021/10/01 09:34:00;;;;;;;6.92;2.80;;;;;;;12.87;40.63;101690.07;1759006;80;21296;-75
2021/10/01 09:37:16;;;;;;;5.47;2.75;;;;;;;12.90;40.93;101694.74;1758659;80;21370;-76
2021/10/01 09:40:21;;;;;;;9.65;3.27;;;;;;;12.99;39.98;101695.17;1758890;80;21312;-76
2021/10/01 09:43:36;;;;;;;4.58;3.67;;;;;;;13.02;40.10;101693.45;1746618;80;21931;-75
2021/10/01 09:46:57;;;;;;;5.58;3.10;;;;;;;13.08;40.22;101696.11;1772798;80;21179;-75
2021/10/01 09:50:08;;;;;;;5.20;3.37;;;;;;;13.18;40.04;101693.27;1762163;80;21245;-76
2021/10/01 09:53:14;;;;;;;11.18;2.92;;;;;;;13.26;39.65;101688.70;1761797;80;21293;-76
2021/10/01 09:56:36;;;;;;;4.30;2.80;;;;;;;13.27;39.42;101672.59;1751946;80;22921;-76
2021/10/01 09:59:43;;;;;;;6.42;3.52;;;;;;;13.20;39.53;101681.08;1746525;79;21571;-77
2021/10/01 10:02:51;;;;;;;7.35;3.08;;;;;;;13.19;39.95;101688.11;1744813;81;21337;-77
2021/10/01 10:06:14;;;;;;;6.45;2.40;;;;;;;13.28;39.76;101683.92;1748514;81;21281;-77
2021/10/01 10:09:22;;;;;;;7.03;2.92;;;;;;;13.36;40.05;101674.88;1743730;81;21329;-75
2021/10/01 10:12:44;;;;;;;4.33;3.00;;;;;;;13.61;39.29;101684.14;1754963;80;21356;-77
2021/10/01 10:15:49;;;;;;;5.47;2.75;;;;;;;13.61;39.29;101684.14;1749861;81;21939;-77
2021/10/01 10:19:01;;;;;;;6.22;2.85;;;;;;;13.59;39.13;101676.55;1745737;79;21179;-76
2021/10/01 10:22:07;;;;;;;7.85;3.00;;;;;;;13.59;39.23;101676.55;1753354;81;21905;-77
2021/10/01 10:25:12;;;;;;;6.90;2.67;;;;;;;13.64;38.71;101685.68;1747308;81;21191;-77
2021/10/01 10:28:19;;;;;;;5.75;2.98;;;;;;;13.67;38.80;101670.25;1752002;81;21190;-77
2021/10/01 10:31:25;;;;;;;5.03;2.90;;;;;;;13.69;39.02;101682.82;1745369;81;21340;-76
2021/10/01 10:34:36;;;;;;;6.80;2.85;;;;;;;13.65;38.96;101677.81;1745869;81;21171;-76
2021/10/01 10:37:53;;;;;;;;;;;;;;;13.62;38.79;101661.63;1753925;81;22281;-76
2021/10/01 10:40:55;;;;;;;6.65;3.00;;;;;;;13.63;38.59;101675.20;1747578;81;20223;-77
2021/10/01 10:44:00;;;;;;;8.28;3.40;;;;;;;13.64;38.84;101677.44;1742160;81;21324;-76
2021/10/01 10:47:07;;;;;;;8.53;3.30;;;;;;;13.64;38.93;101677.44;1743190;81;21313;-76
2021/10/01 10:50:35;;;;;;;5.42;3.33;;;;;;;13.65;38.82;101665.44;1745705;81;21209;-77
2021/10/01 10:53:43;;;;;;;5.75;3.20;;;;;;;13.64;39.15;101661.80;1746826;81;21194;-76
2021/10/01 10:56:47;;;;;;;5.70;3.45;;;;;;;13.75;38.91;101666.17;1749184;80;21918;-76
2021/10/01 10:59:58;;;;;;;7.20;2.98;;;;;;;13.81;38.26;101666.88;1746085;81;21316;-76
2021/10/01 11:03:28;;;;;;;7.65;2.90;;;;;;;13.82;38.49;101660.34;1736228;82;21579;-76
2021/10/01 11:06:34;;;;;;;6.42;2.70;;;;;;;13.88;38.51;101663.84;1750850;81;21356;-76
2021/10/01 11:09:40;;;;;;;5.45;2.83;;;;;;;13.93;38.25;101647.69;1722641;81;21301;-76
2021/10/01 11:12:45;;;;;;;10.78;2.60;;;;;;;13.96;38.12;101651.47;1757631;81;21262;-76
2021/10/01 11:15:51;;;;;;;7.78;2.47;;;;;;;13.96;38.10;101644.59;1741935;81;21940;-76
2021/10/01 11:19:10;;;;;;;8.98;3.17;;;;;;;13.98;38.47;101665.94;1740094;81;21329;-76
2021/10/01 11:22:44;;;;;;;4.58;2.60;;;;;;;14.01;37.92;101657.33;1739416;81;21215;-76
2021/10/01 11:25:49;;;;;;;3.75;2.45;;;;;;;13.98;38.08;101648.05;1752758;81;21305;-76
2021/10/01 11:28:54;;;;;;;3.67;2.27;;;;;;;13.91;38.34;101640.10;1759113;81;21305;-75
2021/10/01 11:32:03;;;;;;;4.72;3.00;;;;;;;13.99;38.09;101642.89;1756422;81;21297;-75
2021/10/01 11:35:09;;;;;;;10.60;2.98;;;;;;;14.05;38.02;101625.71;1767086;81;21296;-75
2021/10/01 11:38:14;;;;;;;5.08;2.80;;;;;;;14.10;37.71;101660.12;1755244;81;21218;-75
2021/10/01 11:41:22;;;;;;;4.62;2.55;;;;;;;14.12;37.67;101641.58;1745547;81;21179;-76
2021/10/01 11:44:28;;;;;;;3.98;2.62;;;;;;;14.14;37.63;101635.38;1745095;81;21301;-76
2021/10/01 11:47:33;;;;;;;4.65;2.83;;;;;;;14.13;37.60;101646.04;1705247;81;21912;-76
2021/10/01 11:50:54;;;;;;;5.97;2.62;;;;;;;14.12;37.41;101621.80;1751884;81;21302;-76
2021/10/01 11:54:21;;;;;;;6.75;2.45;;;;;;;14.10;37.80;101625.73;1752979;81;21786;-76
2021/10/01 11:57:26;;;;;;;5.03;2.80;;;;;;;14.12;37.39;101621.80;1751685;80;21379;-75
2021/10/01 12:00:31;;;;;;;5.10;2.92;;;;;;;14.12;37.51;101617.67;1757436;80;21213;-76
2021/10/01 12:03:38;;;;;;;7.45;3.08;;;;;;;14.11;37.52;101616.44;1757115;80;21194;-76
2021/10/01 12:06:44;;;;;;;6.35;3.35;;;;;;;14.14;37.44;101616.11;1755473;80;21845;-76
2021/10/01 12:09:51;;;;;;;6.10;3.42;;;;;;;14.18;37.46;101613.37;1756241;80;21177;-76
2021/10/01 12:13:22;;;;;;;7.72;3.25;;;;;;;14.19;37.48;101624.20;1765346;80;21159;-76
2021/10/01 12:16:29;;;;;;;6.67;3.70;;;;;;;14.24;37.07;101616.82;1760837;80;21175;-76
2021/10/01 12:19:35;;;;;;;9.83;3.70;;;;;;;14.24;36.96;101608.56;1754955;80;21819;-76
2021/10/01 12:22:41;;;;;;;17.62;3.77;;;;;;;14.26;36.46;101616.16;1756849;80;22323;-76
2021/10/01 12:25:48;;;;;;;7.72;3.50;;;;;;;14.27;36.80;101610.98;1748864;80;21309;-76
2021/10/01 12:29:19;;;;;;;5.25;3.10;;;;;;;14.26;36.96;101602.39;1762577;80;21567;-76
2021/10/01 12:32:24;;;;;;;5.03;2.90;;;;;;;14.29;36.87;101600.14;1757174;80;21320;-76
2021/10/01 12:35:29;;;;;;;10.40;2.98;;;;;;;14.32;36.88;101604.46;1756401;80;21542;-76
2021/10/01 12:38:36;;;;;;;9.90;3.27;;;;;;;14.31;37.10;101600.00;1755077;80;21293;-76
2021/10/01 12:41:42;;;;;;;4.87;2.55;;;;;;;14.32;36.56;101594.83;1770584;80;21308;-75
2021/10/01 12:44:49;;;;;;;7.22;3.05;;;;;;;14.30;36.72;101599.63;1759500;80;21318;-76
2021/10/01 12:47:57;;;;;;;4.90;2.90;;;;;;;14.29;36.78;101593.26;1754646;80;21847;-75
2021/10/01 12:51:02;;;;;;;5.95;2.98;;;;;;;14.32;37.10;101607.21;1748117;80;21312;-75
2021/10/01 12:54:28;;;;;;;6.78;3.50;;;;;;;14.31;36.58;101593.11;1759356;80;21405;-76
2021/10/01 12:57:37;;;;;;;6.70;2.55;;;;;;;14.26;37.21;101602.39;1759908;80;21368;-76
2021/10/01 13:00:44;;;;;;;16.12;2.70;;;;;;;14.29;36.71;101594.64;1761228;80;21316;-75
2021/10/01 13:03:56;;;;;;;9.83;2.90;;;;;;;14.28;36.75;101589.31;1756121;80;21210;-75
2021/10/01 13:07:02;;;;;;;7.25;2.65;;;;;;;14.28;36.70;101597.05;1752681;80;21182;-76
2021/10/01 13:10:22;;;;;;;6.03;2.62;;;;;;;14.26;36.93;101585.36;1764291;80;21143;-75
2021/10/01 13:13:36;;;;;;;5.90;2.90;;;;;;;14.24;36.79;101589.30;1747498;80;21798;-76
2021/10/01 13:16:42;;;;;;;16.48;3.55;;;;;;;14.24;36.87;101580.53;1755104;80;21325;-76
2021/10/01 13:20:07;;;;;;;8.38;2.72;;;;;;;14.24;36.83;101581.05;1765064;80;21198;-76
2021/10/01 13:23:17;;;;;;;9.45;3.52;;;;;;;14.20;36.62;101583.78;1751820;80;21564;-76
2021/10/01 13:26:32;;;;;;;5.58;2.95;;;;;;;14.19;36.61;101588.44;1758561;80;21301;-75
2021/10/01 13:29:37;;;;;;;3.60;2.40;;;;;;;14.20;36.96;101585.16;1752438;80;21254;-75
2021/10/01 13:32:43;;;;;;;10.40;2.92;;;;;;;14.20;36.96;101579.66;1752698;80;21340;-76
2021/10/01 13:35:49;;;;;;;4.12;2.77;;;;;;;14.17;37.07;101578.12;1751559;80;22483;-75
2021/10/01 13:38:55;;;;;;;7.45;3.20;;;;;;;14.17;36.53;101590.50;1754160;80;21770;-75
2021/10/01 13:42:01;;;;;;;8.53;3.45;;;;;;;14.14;36.57;101576.22;1760199;80;21174;-75
2021/10/01 13:45:08;;;;;;;11.73;3.02;;;;;;;14.10;36.75;101577.06;1759393;80;21622;-77
2021/10/01 13:48:14;;;;;;;4.30;2.70;;;;;;;14.06;36.74;101574.30;1754538;80;21179;-76
2021/10/01 13:51:20;;;;;;;7.12;3.00;;;;;;;14.03;36.81;101578.78;1772386;80;21871;-77
2021/10/01 13:54:25;;;;;;;5.80;2.95;;;;;;;14.00;36.81;101577.22;1749076;80;21383;-77
2021/10/01 13:57:31;;;;;;;6.62;3.05;;;;;;;14.01;37.05;101577.55;1761339;80;21171;-76
2021/10/01 14:00:37;;;;;;;6.70;3.17;;;;;;;14.00;36.92;101576.36;1752766;80;21215;-76
2021/10/01 14:03:43;;;;;;;9.08;2.98;;;;;;;13.97;36.73;101572.55;1743876;81;21231;-76
2021/10/01 14:06:50;;;;;;;9.53;3.08;;;;;;;13.93;36.76;101582.20;1752821;81;21485;-76
2021/10/01 14:09:48;;;;;;;8.25;2.50;;;;;;;13.90;36.72;101566.88;1759010;81;21190;-76
2021/10/01 14:12:55;;;;;;;11.20;3.27;;;;;;;13.87;37.08;101564.97;1762132;80;21841;-74
2021/10/01 14:16:01;;;;;;;11.48;2.80;;;;;;;13.83;36.85;101567.19;1745882;81;21673;-75
2021/10/01 14:19:09;;;;;;;6.28;2.60;;;;;;;13.80;36.34;101563.41;1746065;81;21333;-75
2021/10/01 14:22:15;;;;;;;6.60;2.50;;;;;;;13.75;36.24;101569.93;1752334;81;21330;-76
2021/10/01 14:25:20;;;;;;;6.03;3.30;;;;;;;13.70;36.31;101567.68;1750729;81;21312;-75
2021/10/01 14:28:27;;;;;;;6.12;2.95;;;;;;;13.66;36.60;101572.30;1752244;81;21199;-75
2021/10/01 14:31:32;;;;;;;6.60;3.37;;;;;;;13.61;36.86;101572.80;1749635;81;21317;-75
2021/10/01 14:34:38;;;;;;;4.65;2.37;;;;;;;13.55;36.78;101567.45;1752224;81;21340;-75
2021/10/01 14:37:43;;;;;;;10.43;2.67;;;;;;;13.50;36.79;101578.09;1760903;81;21179;-75
2021/10/01 14:40:52;;;;;;;6.42;2.90;;;;;;;13.45;37.03;101569.44;1757579;81;21313;-75
2021/10/01 14:43:58;;;;;;;;;;;;;;;13.38;37.04;101569.77;1754337;81;21254;-75
2021/10/01 14:47:04;;;;;;;4.80;2.90;;;;;;;13.33;37.33;101573.52;1748273;81;20223;-75
2021/10/01 14:50:12;;;;;;;5.90;2.62;;;;;;;13.27;37.59;101571.44;1748427;81;21352;-75
2021/10/01 14:53:17;;;;;;;6.28;3.15;;;;;;;13.20;37.71;101567.57;1755283;81;21207;-75
2021/10/01 14:56:24;;;;;;;7.03;3.05;;;;;;;13.12;37.86;101573.01;1749649;81;21314;-75
2021/10/01 14:59:29;;;;;;;7.87;2.90;;;;;;;13.04;38.20;101573.33;1758532;81;22003;-76
2021/10/01 15:02:34;;;;;;;5.70;2.77;;;;;;;12.94;38.36;101579.44;1767643;80;21270;-76
2021/10/01 15:05:40;;;;;;;3.80;2.42;;;;;;;12.88;38.56;101575.94;1767650;81;21325;-75
2021/10/01 15:08:45;;;;;;;7.65;3.02;;;;;;;12.80;38.83;101581.40;1769198;81;21305;-76
2021/10/01 15:11:51;;;;;;;8.28;2.95;;;;;;;12.71;39.11;101583.21;1769512;81;21374;-75
2021/10/01 15:14:57;;;;;;;14.15;4.12;;;;;;;12.63;39.28;101587.77;1770051;81;21246;-76
2021/10/01 15:18:04;;;;;;;6.12;3.05;;;;;;;12.53;39.43;101580.48;1767734;80;21191;-76
2021/10/01 15:21:11;;;;;;;5.85;3.70;;;;;;;12.45;39.58;101580.91;1768621;81;21199;-75
2021/10/01 15:24:17;;;;;;;16.75;4.45;;;;;;;12.36;39.82;101579.98;1770744;81;21164;-75
2021/10/01 15:27:22;;;;;;;10.70;5.00;;;;;;;12.24;40.11;101582.11;1772032;81;21289;-76
2021/10/01 15:30:27;;;;;;;8.00;4.53;;;;;;;12.10;40.29;101581.28;1770762;81;21163;-75
2021/10/01 15:33:33;;;;;;;10.93;4.40;;;;;;;11.99;40.59;101581.48;1771025;81;21295;-76
2021/10/01 15:36:38;;;;;;;14.85;4.12;;;;;;;11.87;40.89;101582.73;1771964;81;21719;-75
2021/10/01 15:39:43;;;;;;;9.88;3.90;;;;;;;11.75;41.30;101583.41;1771112;81;21305;-75
2021/10/01 15:42:49;;;;;;;16.00;4.37;;;;;;;11.61;41.64;101583.91;1771055;81;21227;-75
2021/10/01 15:45:57;;;;;;;4.42;2.85;;;;;;;11.48;42.01;101587.89;1769902;81;21289;-76
2021/10/01 15:49:03;;;;;;;7.05;3.42;;;;;;;11.41;42.21;101591.38;1769865;81;21369;-75
2021/10/01 15:52:10;;;;;;;6.87;3.12;;;;;;;11.33;42.50;101589.37;1769783;81;21328;-75
2021/10/01 15:55:17;;;;;;;8.23;3.60;;;;;;;11.26;42.57;101587.75;1771134;81;21317;-76
2021/10/01 15:58:23;;;;;;;13.18;5.03;;;;;;;11.21;42.56;101591.95;1771075;81;21159;-75